Time;durP1;ratioP1;P1;durP2;ratioP2;P2;SDS_P1;SDS_P2;PMS_P1;PMS_P2;Temp;Humidity;BMP_temperature;BMP_pressure;BME280_temperature;BME280_humidity;BME280_pressure;Samples;Min_cycle;Max_cycle;Signal;HPM_P1;HPM_P2
2022/10/14 00:01:37;;;;;;;79.07;31.75;;;10.20;99.90;;;;;;5220996;28;20029;-72
2022/10/14 00:04:08;;;;;;;82.72;31.35;;;10.10;99.90;;;;;;5221690;28;20534;-71
2022/10/14 00:06:40;;;;;;;82.60;32.13;;;10.20;99.90;;;;;;5193273;28;20049;-72
2022/10/14 00:09:11;;;;;;;101.25;36.30;;;10.20;99.90;;;;;;5220426;28;20230;-72
2022/10/14 00:11:42;;;;;;;86.95;31.10;;;10.30;99.90;;;;;;5220699;28;20087;-72
2022/10/14 00:14:18;;;;;;;92.40;32.30;;;10.20;99.90;;;;;;5202919;28;20301;-72
2022/10/14 00:16:54;;;;;;;78.47;32.20;;;10.10;99.90;;;;;;5213237;28;20025;-72
2022/10/14 00:19:25;;;;;;;85.38;30.90;;;10.10;99.90;;;;;;5193017;28;20052;-72
2022/10/14 00:21:56;;;;;;;83.43;31.73;;;10.00;99.90;;;;;;5182796;28;20029;-72
2022/10/14 00:24:30;;;;;;;84.93;31.30;;;9.90;99.90;;;;;;5187772;28;20021;-72
2022/10/14 00:27:01;;;;;;;82.53;30.23;;;9.90;99.90;;;;;;5200448;28;20044;-72
2022/10/14 00:29:38;;;;;;;88.32;31.88;;;9.90;99.90;;;;;;5200558;28;20487;-72
2022/10/14 00:32:09;;;;;;;86.93;32.45;;;9.90;99.90;;;;;;5187217;28;20128;-72
2022/10/14 00:34:41;;;;;;;91.35;31.55;;;9.90;99.90;;;;;;5219274;28;20063;-72
2022/10/14 00:37:12;;;;;;;96.30;35.28;;;9.90;99.90;;;;;;5220456;28;20021;-72
2022/10/14 00:39:43;;;;;;;93.13;32.92;;;9.90;99.90;;;;;;5203168;28;20032;-72
2022/10/14 00:42:17;;;;;;;87.80;31.98;;;10.00;99.90;;;;;;5225771;28;20572;-72
2022/10/14 00:44:51;;;;;;;95.40;34.10;;;10.00;99.90;;;;;;5210971;28;20029;-72
2022/10/14 00:47:26;;;;;;;99.28;34.30;;;10.00;99.90;;;;;;5201183;28;20036;-72
2022/10/14 00:49:58;;;;;;;;;;;10.00;99.90;;;;;;5220044;28;20029;-72
2022/10/14 00:52:32;;;;;;;82.55;30.45;;;10.00;99.90;;;;;;5201133;28;20247;-72
2022/10/14 00:55:09;;;;;;;82.95;28.52;;;10.00;99.90;;;;;;5205455;28;20488;-72
2022/10/14 00:57:40;;;;;;;88.63;31.20;;;10.00;99.90;;;;;;5230776;28;20056;-72
2022/10/14 01:00:17;;;;;;;94.10;32.33;;;10.00;99.90;;;;;;5202545;28;20025;-72
2022/10/14 01:02:48;;;;;;;93.30;32.13;;;10.00;99.90;;;;;;5219145;28;20043;-73
2022/10/14 01:05:20;;;;;;;90.47;30.73;;;9.90;99.90;;;;;;5223581;28;20044;-72
2022/10/14 01:08:24;;;;;;;93.75;33.42;;;9.90;99.90;;;;;;5222757;28;20035;-72
2022/10/14 01:11:08;;;;;;;96.07;35.22;;;9.90;99.90;;;;;;5222751;28;20032;-73
2022/10/14 01:13:49;;;;;;;89.07;33.88;;;9.90;99.90;;;;;;5232442;28;20028;-72
2022/10/14 01:16:38;;;;;;;87.72;32.55;;;9.80;99.90;;;;;;5214738;28;20079;-72
2022/10/14 01:19:28;;;;;;;90.25;32.25;;;9.80;99.90;;;;;;5196665;28;20052;-72
2022/10/14 01:22:13;;;;;;;81.68;32.15;;;9.70;99.90;;;;;;5202167;28;20025;-72
2022/10/14 01:24:47;;;;;;;82.93;28.95;;;9.70;99.90;;;;;;5191237;28;20498;-72
2022/10/14 01:27:45;;;;;;;86.30;30.42;;;9.70;99.90;;;;;;5223478;28;20021;-72
2022/10/14 01:30:22;;;;;;;86.32;29.95;;;9.70;99.90;;;;;;5222483;28;20039;-72
2022/10/14 01:33:08;;;;;;;70.75;29.50;;;9.60;99.90;;;;;;5223881;28;20029;-72
2022/10/14 01:35:48;;;;;;;70.28;29.80;;;9.60;99.90;;;;;;5223021;28;20033;-72
2022/10/14 01:38:29;;;;;;;76.40;30.15;;;9.60;99.90;;;;;;5223050;28;20059;-72
2022/10/14 01:41:08;;;;;;;70.13;29.98;;;9.60;99.90;;;;;;5223671;28;20029;-72
2022/10/14 01:43:41;;;;;;;69.55;29.25;;;9.60;99.90;;;;;;5220519;28;20031;-72
2022/10/14 01:46:25;;;;;;;71.10;28.88;;;9.50;99.90;;;;;;5222870;28;20031;-73
2022/10/14 01:49:05;;;;;;;73.07;29.90;;;9.50;99.90;;;;;;5188891;28;20025;-73
2022/10/14 01:51:46;;;;;;;89.55;32.15;;;9.40;99.90;;;;;;5207714;28;20017;-72
2022/10/14 01:54:29;;;;;;;88.18;33.72;;;9.40;99.90;;;;;;5222297;28;20057;-72
2022/10/14 01:57:06;;;;;;;87.38;31.98;;;9.40;99.90;;;;;;5204041;28;20024;-72
2022/10/14 01:59:40;;;;;;;94.88;32.88;;;9.40;99.90;;;;;;5222807;28;20028;-72
2022/10/14 02:02:12;;;;;;;98.78;34.22;;;9.40;99.90;;;;;;5221728;28;20055;-72
2022/10/14 02:04:46;;;;;;;75.15;28.80;;;9.30;99.90;;;;;;5218646;28;20052;-72
2022/10/14 02:07:42;;;;;;;83.65;32.00;;;9.20;99.90;;;;;;5217027;28;20032;-72
2022/10/14 02:10:51;;;;;;;87.10;30.92;;;9.20;99.90;;;;;;5221899;28;20380;-72
2022/10/14 02:13:33;;;;;;;73.15;28.60;;;9.20;99.90;;;;;;5132231;28;20031;-72
2022/10/14 02:16:41;;;;;;;70.90;28.55;;;9.20;99.90;;;;;;5121147;28;20039;-72
2022/10/14 02:19:33;;;;;;;77.30;30.42;;;9.30;99.90;;;;;;5133243;28;20533;-72
2022/10/14 02:22:18;;;;;;;87.32;30.92;;;9.30;99.90;;;;;;5139929;28;20056;-73
2022/10/14 02:24:55;;;;;;;74.13;29.58;;;9.50;99.90;;;;;;5138054;28;20053;-72
2022/10/14 02:27:31;;;;;;;71.50;28.60;;;9.50;99.90;;;;;;5122419;28;20030;-72
2022/10/14 02:30:03;;;;;;;79.50;31.38;;;9.60;99.90;;;;;;5123318;28;20050;-72
2022/10/14 02:32:36;;;;;;;78.72;29.88;;;9.60;99.90;;;;;;5122551;28;20046;-72
2022/10/14 02:35:10;;;;;;;66.38;28.08;;;9.60;99.90;;;;;;5145013;28;20037;-72
2022/10/14 02:37:47;;;;;;;64.80;28.08;;;9.70;99.90;;;;;;5139044;28;20031;-72
2022/10/14 02:40:32;;;;;;;62.60;25.98;;;9.70;99.90;;;;;;5136408;28;20035;-72
2022/10/14 02:43:03;;;;;;;58.25;25.48;;;9.70;99.90;;;;;;5132371;28;20030;-72
2022/10/14 02:45:40;;;;;;;60.45;25.40;;;9.70;99.90;;;;;;5136914;28;20562;-72
2022/10/14 02:48:12;;;;;;;56.22;25.05;;;9.60;99.90;;;;;;5136543;28;20041;-72
2022/10/14 02:50:43;;;;;;;64.20;26.63;;;9.60;99.90;;;;;;5186814;28;20040;-73
2022/10/14 02:53:18;;;;;;;64.35;26.95;;;9.70;99.90;;;;;;5198275;28;20207;-73
2022/10/14 02:55:50;;;;;;;68.90;28.10;;;9.60;99.90;;;;;;5203184;28;20020;-72
2022/10/14 02:58:21;;;;;;;52.70;26.27;;;9.60;99.90;;;;;;5222009;28;20021;-72
2022/10/14 03:00:52;;;;;;;60.13;27.38;;;9.60;99.90;;;;;;5203749;28;20037;-72
2022/10/14 03:03:26;;;;;;;55.03;23.88;;;9.60;99.90;;;;;;5222029;28;20032;-72
2022/10/14 03:05:57;;;;;;;53.73;25.40;;;9.60;99.90;;;;;;5212227;28;20140;-72
2022/10/14 03:08:31;;;;;;;55.95;26.02;;;9.60;99.90;;;;;;5203143;28;20029;-73
2022/10/14 03:11:05;;;;;;;53.67;25.75;;;9.50;99.90;;;;;;5183501;28;20568;-72
2022/10/14 03:13:36;;;;;;;58.80;26.00;;;9.50;99.90;;;;;;5204589;28;20059;-72
2022/10/14 03:16:07;;;;;;;57.50;26.15;;;9.50;99.90;;;;;;5221943;28;20025;-72
2022/10/14 03:18:41;;;;;;;55.03;25.65;;;9.60;99.90;;;;;;5204175;28;20033;-72
2022/10/14 03:21:15;;;;;;;65.70;28.23;;;9.70;99.90;;;;;;5220816;28;20029;-73
2022/10/14 03:23:46;;;;;;;57.08;25.85;;;9.70;99.90;;;;;;5221133;28;20017;-73
2022/10/14 03:26:18;;;;;;;53.03;24.13;;;9.70;99.90;;;;;;5220950;28;20020;-72
2022/10/14 03:28:52;;;;;;;53.58;25.70;;;9.80;99.90;;;;;;5221605;28;20021;-73
2022/10/14 03:31:26;;;;;;;52.03;25.92;;;9.90;99.90;;;;;;5203423;28;20035;-72
2022/10/14 03:34:02;;;;;;;50.53;24.75;;;9.90;99.90;;;;;;5222642;28;20040;-72
2022/10/14 03:36:33;;;;;;;51.53;24.65;;;9.90;99.90;;;;;;5202664;28;20033;-73
2022/10/14 03:39:05;;;;;;;46.17;22.27;;;9.80;99.90;;;;;;5196202;28;20047;-72
2022/10/14 03:41:36;;;;;;;50.65;22.98;;;9.80;99.90;;;;;;5203657;28;20439;-73
2022/10/14 03:44:07;;;;;;;46.67;24.00;;;9.80;99.90;;;;;;5219725;28;20020;-72
2022/10/14 03:46:38;;;;;;;49.03;23.95;;;9.90;99.90;;;;;;5221278;28;20039;-72
2022/10/14 03:49:12;;;;;;;48.50;22.88;;;9.80;99.90;;;;;;5221156;28;20033;-72
2022/10/14 03:51:43;;;;;;;43.70;23.63;;;9.80;99.90;;;;;;5220798;28;20536;-71
2022/10/14 03:54:15;;;;;;;56.85;25.27;;;9.90;99.90;;;;;;5220312;28;20032;-72
2022/10/14 03:56:51;;;;;;;49.20;23.48;;;9.90;99.90;;;;;;5203499;28;20039;-72
2022/10/14 03:59:22;;;;;;;40.97;20.92;;;10.00;99.90;;;;;;5220531;28;20545;-72
2022/10/14 04:01:53;;;;;;;45.38;23.75;;;10.00;99.90;;;;;;5220485;28;20043;-72
2022/10/14 04:04:27;;;;;;;44.38;23.23;;;10.10;99.90;;;;;;5183696;28;20036;-71
2022/10/14 04:06:59;;;;;;;45.70;23.60;;;10.00;99.90;;;;;;5186127;28;20055;-72
2022/10/14 04:09:33;;;;;;;48.17;24.00;;;10.00;99.90;;;;;;5211810;28;20035;-71
2022/10/14 04:12:06;;;;;;;49.05;22.88;;;10.10;99.90;;;;;;5221080;28;20039;-72
2022/10/14 04:14:40;;;;;;;44.70;22.88;;;10.10;99.90;;;;;;5202715;28;20048;-72
2022/10/14 04:17:11;;;;;;;45.67;22.53;;;10.10;99.90;;;;;;5201993;28;20025;-72
2022/10/14 04:19:46;;;;;;;44.78;24.17;;;10.10;99.90;;;;;;5219864;28;20033;-71
2022/10/14 04:22:21;;;;;;;44.45;21.52;;;10.10;99.90;;;;;;5220990;28;20494;-72
2022/10/14 04:25:00;;;;;;;40.40;20.30;;;10.20;99.90;;;;;;5219299;28;20024;-72
2022/10/14 04:27:31;;;;;;;45.53;22.55;;;10.10;99.90;;;;;;5203924;28;20029;-72
2022/10/14 04:30:04;;;;;;;46.90;22.88;;;10.10;99.90;;;;;;5220132;28;20040;-72
2022/10/14 04:32:35;;;;;;;43.65;21.95;;;10.20;99.90;;;;;;5220546;28;20043;-72
2022/10/14 04:35:09;;;;;;;43.22;22.27;;;10.20;99.90;;;;;;5184757;28;20048;-72
2022/10/14 04:37:43;;;;;;;49.60;23.85;;;10.20;99.90;;;;;;5199029;28;20027;-72
2022/10/14 04:40:14;;;;;;;47.93;23.70;;;10.20;99.90;;;;;;5182638;28;20033;-71
2022/10/14 04:42:45;;;;;;;44.42;22.77;;;10.20;99.90;;;;;;5181308;28;20040;-72
2022/10/14 04:45:19;;;;;;;39.72;21.88;;;10.20;99.90;;;;;;5182167;28;20044;-71
2022/10/14 04:47:51;;;;;;;48.72;23.10;;;10.30;99.90;;;;;;5218259;28;20029;-71
2022/10/14 04:50:23;;;;;;;46.25;22.10;;;10.30;99.90;;;;;;5202998;28;20317;-71
2022/10/14 04:52:54;;;;;;;41.55;22.40;;;10.40;99.90;;;;;;5194973;28;20037;-73
2022/10/14 04:55:25;;;;;;;45.47;23.38;;;10.40;99.90;;;;;;5217265;28;20029;-73
2022/10/14 04:57:59;;;;;;;44.28;22.63;;;10.40;99.90;;;;;;5224268;28;20032;-73
2022/10/14 05:00:30;;;;;;;36.95;20.23;;;10.40;99.90;;;;;;5223944;28;20381;-73
2022/10/14 05:03:05;;;;;;;44.78;21.85;;;10.50;99.90;;;;;;5222454;28;20230;-73
2022/10/14 05:05:36;;;;;;;36.95;21.52;;;10.50;99.90;;;;;;5190164;28;20250;-73
2022/10/14 05:08:07;;;;;;;37.70;21.13;;;10.50;99.90;;;;;;5221563;28;20519;-72
2022/10/14 05:10:38;;;;;;;42.05;19.33;;;10.50;99.90;;;;;;5201258;28;20183;-73
2022/10/14 05:13:15;;;;;;;31.13;18.55;;;10.50;99.90;;;;;;5215406;28;20033;-74
2022/10/14 05:15:46;;;;;;;34.55;18.55;;;10.50;99.90;;;;;;5224993;28;20028;-73
2022/10/14 05:18:20;;;;;;;35.28;19.20;;;10.50;99.90;;;;;;5211045;28;20043;-73
2022/10/14 05:20:59;;;;;;;36.05;19.40;;;10.60;99.90;;;;;;5205655;28;20029;-73
2022/10/14 05:23:30;;;;;;;40.22;19.95;;;10.60;99.90;;;;;;5204882;28;20416;-74
2022/10/14 05:26:02;;;;;;;37.38;21.00;;;10.60;99.90;;;;;;5223146;28;20029;-72
2022/10/14 05:28:39;;;;;;;35.20;19.98;;;10.70;99.90;;;;;;5205329;28;20036;-71
2022/10/14 05:31:10;;;;;;;30.40;16.92;;;10.70;99.90;;;;;;5223146;28;20084;-72
2022/10/14 05:33:41;;;;;;;31.48;16.63;;;10.70;99.90;;;;;;5202407;28;20021;-71
2022/10/14 05:36:13;;;;;;;27.75;16.70;;;10.70;99.90;;;;;;5212953;28;20041;-73
2022/10/14 05:38:47;;;;;;;28.40;16.05;;;10.80;99.90;;;;;;5203196;28;20025;-72
2022/10/14 05:41:18;;;;;;;28.15;15.90;;;10.80;99.90;;;;;;5187984;28;20384;-72
2022/10/14 05:43:52;;;;;;;26.85;15.35;;;10.80;99.90;;;;;;5204756;28;20348;-71
2022/10/14 05:46:24;;;;;;;25.35;15.23;;;10.90;99.90;;;;;;5222658;28;20044;-71
2022/10/14 05:48:56;;;;;;;24.67;15.55;;;11.00;99.90;;;;;;5188503;28;20048;-73
2022/10/14 05:51:30;;;;;;;26.33;16.63;;;11.10;99.90;;;;;;5204985;28;20040;-71
2022/10/14 05:54:01;;;;;;;27.38;16.25;;;11.10;99.90;;;;;;5171516;28;20337;-71
2022/10/14 05:56:34;;;;;;;23.30;15.35;;;11.30;99.90;;;;;;5222668;28;20025;-71
2022/10/14 05:59:08;;;;;;;26.97;15.93;;;11.40;99.90;;;;;;5223152;28;20292;-71
2022/10/14 06:01:42;;;;;;;27.73;15.23;;;11.40;99.90;;;;;;5221127;28;20051;-72
2022/10/14 06:04:18;;;;;;;23.45;14.73;;;11.50;99.90;;;;;;5196498;28;20088;-73
2022/10/14 06:06:49;;;;;;;23.00;14.55;;;11.50;99.90;;;;;;5198712;28;20045;-73
2022/10/14 06:09:22;;;;;;;22.90;13.82;;;11.50;99.90;;;;;;5201855;28;20033;-73
2022/10/14 06:11:53;;;;;;;22.33;15.35;;;11.50;99.90;;;;;;5210378;28;20025;-73
2022/10/14 06:14:27;;;;;;;28.73;15.18;;;11.60;99.90;;;;;;5203498;28;20044;-71
2022/10/14 06:16:58;;;;;;;25.70;15.15;;;11.60;99.90;;;;;;5222474;28;20033;-74
2022/10/14 06:19:33;;;;;;;26.85;15.63;;;11.60;99.90;;;;;;5225994;28;20039;-73
2022/10/14 06:22:04;;;;;;;22.33;15.10;;;11.60;99.90;;;;;;5210580;28;20308;-74
2022/10/14 06:24:38;;;;;;;28.38;16.50;;;11.60;99.90;;;;;;5213155;28;20025;-73
2022/10/14 06:27:09;;;;;;;29.25;17.23;;;11.50;99.90;;;;;;5202213;28;20445;-73
2022/10/14 06:29:40;;;;;;;28.10;17.20;;;11.30;99.90;;;;;;5196765;28;20041;-74
2022/10/14 06:32:12;;;;;;;34.67;18.80;;;11.30;99.90;;;;;;5213135;28;20063;-74
2022/10/14 06:34:43;;;;;;;33.78;18.67;;;11.10;99.90;;;;;;5212698;28;20033;-73
2022/10/14 06:37:14;;;;;;;36.70;19.90;;;11.10;99.90;;;;;;5222527;28;20039;-73
2022/10/14 06:39:48;;;;;;;35.67;19.52;;;11.00;99.90;;;;;;5229335;28;20036;-73
2022/10/14 06:42:19;;;;;;;38.92;19.67;;;11.00;99.90;;;;;;5223486;28;20021;-74
2022/10/14 06:44:50;;;;;;;36.00;20.85;;;11.00;99.90;;;;;;5219808;28;20092;-76
2022/10/14 06:47:23;;;;;;;43.15;21.38;;;11.00;99.90;;;;;;5227968;28;20036;-73
2022/10/14 06:49:54;;;;;;;50.05;22.77;;;11.00;99.90;;;;;;5172360;28;20471;-73
2022/10/14 06:52:25;;;;;;;47.45;23.70;;;11.10;99.90;;;;;;5221582;28;20013;-74
2022/10/14 06:54:57;;;;;;;51.47;23.48;;;11.10;99.90;;;;;;5224639;28;20525;-72
2022/10/14 06:57:28;;;;;;;50.90;23.35;;;11.10;99.90;;;;;;5220198;28;20191;-72
2022/10/14 06:59:59;;;;;;;45.92;22.63;;;11.20;99.90;;;;;;5220348;28;20051;-74
2022/10/14 07:02:33;;;;;;;46.58;24.98;;;11.30;99.90;;;;;;5216109;28;20203;-73
2022/10/14 07:05:06;;;;;;;44.20;22.70;;;11.40;99.90;;;;;;5191085;28;20222;-74
2022/10/14 07:07:40;;;;;;;50.43;22.43;;;11.40;99.90;;;;;;5211489;28;20266;-73
2022/10/14 07:10:11;;;;;;;57.13;24.05;;;11.50;99.90;;;;;;5196392;28;20444;-75
2022/10/14 07:12:43;;;;;;;52.08;24.30;;;11.50;99.90;;;;;;5200931;28;20032;-74
2022/10/14 07:15:18;;;;;;;50.88;25.10;;;11.40;99.90;;;;;;5205826;28;20060;-73
2022/10/14 07:17:49;;;;;;;50.78;25.38;;;11.40;99.90;;;;;;5203980;28;20041;-73
2022/10/14 07:20:22;;;;;;;51.78;23.48;;;11.40;99.90;;;;;;5202321;28;20259;-74
2022/10/14 07:22:55;;;;;;;51.17;26.67;;;11.50;99.90;;;;;;5201006;28;20039;-74
2022/10/14 07:25:29;;;;;;;51.63;24.83;;;11.50;99.90;;;;;;5219225;28;20033;-75
2022/10/14 07:28:01;;;;;;;56.28;25.15;;;11.60;99.90;;;;;;5217277;28;20086;-74
2022/10/14 07:30:33;;;;;;;47.05;24.15;;;11.70;99.90;;;;;;5220529;28;20055;-74
2022/10/14 07:33:04;;;;;;;51.65;25.67;;;11.80;99.90;;;;;;5221162;28;20036;-74
2022/10/14 07:35:37;;;;;;;51.75;25.45;;;11.80;99.90;;;;;;5217917;28;20055;-74
2022/10/14 07:38:09;;;;;;;50.50;25.17;;;11.80;99.90;;;;;;5220009;28;20045;-73
2022/10/14 07:40:40;;;;;;;62.88;30.20;;;11.70;99.90;;;;;;5227012;28;20273;-72
2022/10/14 07:43:11;;;;;;;52.83;26.38;;;11.60;99.90;;;;;;5240171;28;20326;-73
2022/10/14 07:45:46;;;;;;;55.65;26.38;;;11.70;99.90;;;;;;5214180;28;20029;-73
2022/10/14 07:48:18;;;;;;;66.55;30.23;;;11.90;99.90;;;;;;5202673;28;20021;-73
2022/10/14 07:50:49;;;;;;;66.75;31.83;;;12.00;99.90;;;;;;5182389;28;20047;-73
2022/10/14 07:53:21;;;;;;;74.05;31.13;;;11.90;99.90;;;;;;5198234;28;20331;-73
2022/10/14 07:55:57;;;;;;;70.30;31.55;;;12.10;99.90;;;;;;5208369;28;20047;-73
2022/10/14 07:58:30;;;;;;;57.42;29.30;;;12.10;99.90;;;;;;5220327;28;20092;-73
2022/10/14 08:01:01;;;;;;;63.38;28.52;;;12.30;99.90;;;;;;5205779;28;20036;-73
2022/10/14 08:03:33;;;;;;;64.93;29.40;;;12.40;99.90;;;;;;5230545;28;20044;-73
2022/10/14 08:06:05;;;;;;;53.25;27.77;;;12.60;99.90;;;;;;5218578;28;20416;-74
2022/10/14 08:08:42;;;;;;;55.63;27.75;;;13.00;99.90;;;;;;5220317;28;20019;-74
2022/10/14 08:11:22;;;;;;;62.20;29.75;;;13.10;99.90;;;;;;5219578;28;20029;-73
2022/10/14 08:13:53;;;;;;;55.15;28.25;;;13.00;99.90;;;;;;5204235;28;20298;-73
2022/10/14 08:16:30;;;;;;;59.00;30.65;;;12.90;99.90;;;;;;5220749;28;20054;-74
2022/10/14 08:19:05;;;;;;;60.80;29.33;;;12.80;99.90;;;;;;5203076;28;20033;-74
2022/10/14 08:21:38;;;;;;;47.55;26.52;;;12.90;99.90;;;;;;5202950;28;20028;-74
2022/10/14 08:24:10;;;;;;;47.53;26.70;;;12.90;99.90;;;;;;5222787;28;20032;-74
2022/10/14 08:26:53;;;;;;;44.58;24.67;;;13.00;99.90;;;;;;5216806;28;20029;-74
2022/10/14 08:29:25;;;;;;;50.97;24.63;;;13.20;99.90;;;;;;5212393;28;20028;-73
2022/10/14 08:31:56;;;;;;;49.30;25.42;;;13.40;99.90;;;;;;5229552;28;20221;-73
2022/10/14 08:34:28;;;;;;;46.00;24.08;;;13.60;99.90;;;;;;5225013;28;20349;-73
2022/10/14 08:37:01;;;;;;;45.67;22.85;;;13.90;99.90;;;;;;5207561;28;20051;-73
2022/10/14 08:39:32;;;;;;;44.20;25.15;;;14.20;99.90;;;;;;5209419;28;20036;-73
2022/10/14 08:42:19;;;;;;;43.55;23.10;;;14.20;99.90;;;;;;5240844;28;20292;-72
2022/10/14 08:45:00;;;;;;;36.42;22.00;;;14.50;99.90;;;;;;5240597;28;20028;-72
2022/10/14 08:47:45;;;;;;;35.10;20.83;;;14.90;99.90;;;;;;5222850;28;20035;-74
2022/10/14 08:50:21;;;;;;;33.42;20.30;;;15.60;99.90;;;;;;5223975;28;20219;-73
2022/10/14 08:52:59;;;;;;;30.05;19.90;;;15.90;99.90;;;;;;5198544;28;20205;-74
2022/10/14 08:55:43;;;;;;;27.45;18.45;;;16.50;99.90;;;;;;5212373;28;20033;-73
2022/10/14 08:58:38;;;;;;;29.20;17.73;;;17.00;99.90;;;;;;5194762;28;20540;-73
2022/10/14 09:01:30;;;;;;;26.90;16.25;;;17.50;99.90;;;;;;5223472;28;20126;-73
2022/10/14 09:04:12;;;;;;;23.98;15.02;;;18.00;99.90;;;;;;5235817;28;20244;-72
2022/10/14 09:06:45;;;;;;;23.17;14.82;;;18.20;99.90;;;;;;5191679;28;20294;-72
2022/10/14 09:09:22;;;;;;;23.13;14.35;;;18.00;99.90;;;;;;5200061;28;20336;-73
2022/10/14 09:11:59;;;;;;;21.83;14.38;;;18.00;99.90;;;;;;5204938;28;20033;-72
2022/10/14 09:14:38;;;;;;;20.00;12.77;;;18.30;99.90;;;;;;5213274;28;20028;-72
2022/10/14 09:17:19;;;;;;;25.75;13.23;;;18.40;99.90;;;;;;5215917;28;20028;-73
2022/10/14 09:20:11;;;;;;;19.45;11.50;;;18.30;99.90;;;;;;5216555;28;20029;-73
2022/10/14 09:23:09;;;;;;;23.77;14.93;;;17.90;99.90;;;;;;5215708;28;20246;-72
2022/10/14 09:25:56;;;;;;;22.90;15.93;;;17.70;99.90;;;;;;5196197;28;20041;-72
2022/10/14 09:28:39;;;;;;;26.67;16.95;;;17.40;99.90;;;;;;5182816;28;20471;-73
2022/10/14 09:31:14;;;;;;;24.52;16.70;;;17.20;99.90;;;;;;5161195;28;20016;-72
2022/10/14 09:33:45;;;;;;;26.05;16.25;;;17.10;99.90;;;;;;5206168;28;20037;-74
2022/10/14 09:36:22;;;;;;;22.15;13.60;;;17.00;99.90;;;;;;5214650;28;20025;-73
2022/10/14 09:38:57;;;;;;;25.92;14.88;;;16.80;99.90;;;;;;5182234;28;20032;-73
2022/10/14 09:41:30;;;;;;;24.63;13.90;;;16.80;99.90;;;;;;5214581;28;20307;-72
2022/10/14 09:44:20;;;;;;;23.95;13.38;;;16.90;99.90;;;;;;5217090;28;20360;-72
2022/10/14 09:47:01;;;;;;;19.63;12.75;;;17.40;99.90;;;;;;5218416;28;20028;-74
2022/10/14 09:49:44;;;;;;;18.50;11.98;;;17.80;99.90;;;;;;5219719;28;20020;-73
2022/10/14 09:52:25;;;;;;;19.92;12.27;;;18.20;99.90;;;;;;5199914;28;20028;-73
2022/10/14 09:54:59;;;;;;;18.42;12.40;;;18.20;99.90;;;;;;5220429;28;20020;-73
2022/10/14 09:57:34;;;;;;;17.70;11.48;;;18.40;99.90;;;;;;5219284;28;20408;-74
2022/10/14 10:00:06;;;;;;;19.20;11.77;;;18.60;99.90;;;;;;5219933;28;20202;-74
2022/10/14 10:02:47;;;;;;;18.40;10.13;;;18.60;99.90;;;;;;5219233;28;20039;-72
2022/10/14 10:05:31;;;;;;;18.70;10.48;;;18.80;99.90;;;;;;5208975;28;20290;-71
2022/10/14 10:08:17;;;;;;;16.83;10.82;;;18.50;99.90;;;;;;5201241;28;20027;-74
2022/10/14 10:11:12;;;;;;;17.83;11.27;;;18.40;99.90;;;;;;5216427;28;20035;-72
2022/10/14 10:13:47;;;;;;;17.92;12.05;;;18.00;99.90;;;;;;5202094;28;20244;-72
2022/10/14 10:16:26;;;;;;;;;;;17.80;99.90;;;;;;5213060;28;20059;-73
2022/10/14 10:19:17;;;;;;;16.50;11.60;;;17.80;99.90;;;;;;5200627;28;19900;-73
2022/10/14 10:21:50;;;;;;;17.60;10.63;;;17.80;99.90;;;;;;5197713;28;20025;-72
2022/10/14 10:24:22;;;;;;;14.67;10.60;;;18.00;99.90;;;;;;5217198;28;20028;-73
2022/10/14 10:26:53;;;;;;;17.45;9.75;;;18.20;99.90;;;;;;5200052;28;20246;-73
2022/10/14 10:29:34;;;;;;;14.10;9.68;;;18.30;99.90;;;;;;5219070;28;20041;-73
2022/10/14 10:32:41;;;;;;;11.75;8.32;;;18.40;99.90;;;;;;5219314;28;20043;-73
2022/10/14 10:35:38;;;;;;;11.70;8.13;;;18.50;99.90;;;;;;5218811;28;20027;-73
2022/10/14 10:38:21;;;;;;;11.95;7.97;;;18.40;99.90;;;;;;5220011;28;20028;-74
2022/10/14 10:41:20;;;;;;;13.10;8.60;;;18.30;99.90;;;;;;5209324;28;20030;-72
2022/10/14 10:44:06;;;;;;;10.93;7.60;;;18.40;99.90;;;;;;5219363;28;20282;-74
2022/10/14 10:46:53;;;;;;;19.63;10.77;;;18.70;99.90;;;;;;5219654;28;20020;-74
2022/10/14 10:49:39;;;;;;;12.20;8.45;;;18.80;99.90;;;;;;5212901;28;20360;-73
2022/10/14 10:52:22;;;;;;;13.13;9.40;;;19.00;99.90;;;;;;5217076;28;20463;-73
2022/10/14 10:55:18;;;;;;;13.40;9.52;;;18.90;99.90;;;;;;5215959;28;20042;-73
2022/10/14 10:58:04;;;;;;;9.93;7.05;;;19.40;99.90;;;;;;5219385;28;20029;-73
2022/10/14 11:00:47;;;;;;;11.85;6.47;;;20.30;99.90;;;;;;5201292;28;20379;-74
2022/10/14 11:03:29;;;;;;;9.98;5.55;;;20.30;99.90;;;;;;5219813;28;20033;-72
2022/10/14 11:13:54;;;;;;;9.90;6.68;;;25.40;99.90;;;;;;5219481;28;20029;-73
2022/10/14 11:16:29;;;;;;;8.70;5.80;;;26.60;99.90;;;;;;5197403;28;20055;-74
2022/10/14 11:19:57;;;;;;;6.57;4.53;;;27.80;99.90;;;;;;5214204;28;20025;-73
2022/10/14 11:22:43;;;;;;;11.32;7.28;;;28.60;99.90;;;;;;5163646;28;20405;-74
2022/10/14 11:25:17;;;;;;;9.65;6.65;;;28.30;99.90;;;;;;5200679;28;20032;-73
2022/10/14 11:28:08;;;;;;;9.55;6.70;;;27.10;99.90;;;;;;5214866;28;20036;-73
2022/10/14 11:30:48;;;;;;;10.82;6.55;;;25.80;99.90;;;;;;5219018;28;20033;-73
2022/10/14 11:33:38;;;;;;;8.80;6.00;;;25.50;99.90;;;;;;5217234;28;20047;-73
2022/10/14 11:36:48;;;;;;;9.23;6.10;;;24.10;99.90;;;;;;5216459;28;20027;-73
2022/10/14 11:39:47;;;;;;;9.20;5.90;;;23.90;99.90;;;;;;5213476;28;20024;-73
2022/10/14 11:42:26;;;;;;;7.78;5.47;;;23.60;99.90;;;;;;5198539;28;20028;-73
2022/10/14 11:45:26;;;;;;;9.95;5.97;;;23.20;99.90;;;;;;5215163;28;20028;-73
2022/10/14 11:48:09;;;;;;;9.00;5.57;;;23.10;99.90;;;;;;5216551;28;20025;-73
2022/10/14 11:50:47;;;;;;;9.05;5.80;;;22.60;99.90;;;;;;5217930;28;20025;-73
2022/10/14 11:53:51;;;;;;;8.98;6.38;;;22.40;99.90;;;;;;5218341;28;20036;-74
2022/10/14 11:56:50;;;;;;;7.47;4.55;;;22.00;99.90;;;;;;5216730;28;20020;-73
2022/10/14 11:59:49;;;;;;;8.70;5.07;;;21.50;99.90;;;;;;5215528;28;20234;-73
2022/10/14 12:02:42;;;;;;;7.38;5.18;;;22.20;99.90;;;;;;5216660;28;20045;-73
2022/10/14 12:05:22;;;;;;;9.07;5.38;;;23.50;99.90;;;;;;5204921;28;20059;-72
2022/10/14 12:08:23;;;;;;;8.77;6.00;;;24.10;99.90;;;;;;5181229;28;20160;-72
2022/10/14 12:11:06;;;;;;;6.13;4.90;;;24.20;99.90;;;;;;5214842;28;20225;-72
2022/10/14 12:13:53;;;;;;;6.13;4.82;;;24.00;99.90;;;;;;5201924;28;20038;-72
2022/10/14 12:16:25;;;;;;;6.80;4.93;;;24.30;99.90;;;;;;5215000;28;20158;-73
2022/10/14 12:18:56;;;;;;;7.03;5.13;;;24.90;99.90;;;;;;5214715;28;20025;-73
2022/10/14 12:22:00;;;;;;;7.55;5.15;;;24.90;99.90;;;;;;5197699;28;20035;-74
2022/10/14 12:24:38;;;;;;;9.73;5.40;;;23.90;99.90;;;;;;5215125;28;20464;-73
2022/10/14 12:27:12;;;;;;;7.20;4.97;;;23.50;99.90;;;;;;5199503;28;20020;-73
2022/10/14 12:29:48;;;;;;;6.22;4.80;;;22.70;99.90;;;;;;5215929;28;20039;-73
2022/10/14 12:32:23;;;;;;;7.38;5.50;;;21.70;99.90;;;;;;5216111;28;20418;-72
2022/10/14 12:35:01;;;;;;;8.43;5.28;;;21.50;99.90;;;;;;5217188;28;20021;-73
2022/10/14 12:37:50;;;;;;;10.32;6.47;;;21.20;99.90;;;;;;5217025;28;20059;-74
2022/10/14 12:40:27;;;;;;;9.55;6.57;;;20.90;99.90;;;;;;5198623;28;20207;-74
2022/10/14 12:43:03;;;;;;;7.32;5.35;;;20.50;99.90;;;;;;5216663;28;20349;-75
2022/10/14 12:45:45;;;;;;;7.68;6.07;;;20.10;99.90;;;;;;5205380;28;20341;-72
2022/10/14 12:48:26;;;;;;;8.73;6.05;;;19.90;99.90;;;;;;5214523;28;20029;-72
2022/10/14 12:51:09;;;;;;;8.90;5.57;;;19.80;99.90;;;;;;5216389;28;20315;-74
2022/10/14 12:53:53;;;;;;;7.35;4.80;;;19.90;99.90;;;;;;5214600;28;20495;-74
2022/10/14 12:56:30;;;;;;;11.52;5.50;;;20.00;99.90;;;;;;5213020;28;20310;-74
2022/10/14 12:59:06;;;;;;;7.07;5.22;;;19.40;99.90;;;;;;5206299;28;20020;-74
2022/10/14 13:01:42;;;;;;;9.18;5.25;;;19.30;99.90;;;;;;5181034;28;20041;-74
2022/10/14 13:04:17;;;;;;;7.85;5.25;;;19.20;99.90;;;;;;5201138;28;20283;-73
2022/10/14 13:07:16;;;;;;;10.02;5.80;;;19.00;99.90;;;;;;5213605;28;20101;-73
2022/10/14 13:09:57;;;;;;;8.07;5.63;;;18.90;99.90;;;;;;5216352;28;20326;-72
2022/10/14 13:12:30;;;;;;;7.30;5.32;;;18.90;99.90;;;;;;5198319;28;20251;-73
2022/10/14 13:15:39;;;;;;;7.40;4.70;;;19.00;99.90;;;;;;5180703;28;20051;-72
2022/10/14 13:18:36;;;;;;;7.00;4.93;;;19.00;99.90;;;;;;5201280;28;20234;-73
2022/10/14 13:21:12;;;;;;;8.55;5.30;;;19.10;99.90;;;;;;5218621;28;20017;-72
2022/10/14 13:23:48;;;;;;;7.55;4.82;;;19.20;99.90;;;;;;5218569;28;20025;-72
2022/10/14 13:26:35;;;;;;;8.10;5.68;;;19.20;99.90;;;;;;5201526;28;20033;-74
2022/10/14 13:29:13;;;;;;;5.90;4.20;;;19.30;99.90;;;;;;5199501;28;20044;-74
2022/10/14 13:32:16;;;;;;;5.15;4.03;;;19.40;99.90;;;;;;5218991;28;20036;-74
2022/10/14 13:35:08;;;;;;;6.65;4.80;;;19.60;99.90;;;;;;5221574;28;20041;-74